EFKK/KOK METAR and TAF weather

Enter ICAO airport designator
Station Type Date Time Source
EFKK METAR 2021/03/03 20:20 UTC NOAA

EFKK 032020Z AUTO 33008KT CAVOK M02/M06 Q1006


Station Type Date Time Source
EFKK Decoded METAR 2021/03/03 20:20 UTC NOAA

Kruunupyy, Finland (EFKK) 63-43N 023-09E
Mar 03, 2021 - 03:20 PM EST / 2021.03.03 2020 UTC
Wind: from the NNW (330 degrees) at 9 MPH (8 KT):0
Visibility: greater than 7 mile(s):0
Temperature: 28 F (-2 C)
Windchill: 19 F (-7 C):1
Dew Point: 21 F (-6 C)
Relative Humidity: 74%
Pressure (altimeter): 29.71 in. Hg (1006 hPa)
ob: EFKK 032020Z AUTO 33008KT CAVOK M02/M06 Q1006
cycle: 20

Station Type Date Time Source
EFKK TAF 2019/04/22 21:42 UTC NOAA

TAF EFKK 222023Z 2221/2321 18006KT CAVOK

Example: see airport list